Time;durP1;ratioP1;P1;durP2;ratioP2;P2;SDS_P1;SDS_P2;PMS_P1;PMS_P2;Temp;Humidity;BMP_temperature;BMP_pressure;BME280_temperature;BME280_humidity;BME280_pressure;Samples;Min_cycle;Max_cycle;Signal;HPM_P1;HPM_P2
2023/04/22 00:01:00;;;;;;;13.70;6.75;;;;;;;24.07;44.53;101263.72;20969955;28;20091;-76
2023/04/22 00:11:01;;;;;;;20.05;8.93;;;;;;;24.25;44.18;101292.91;20977652;28;20039;-74
2023/04/22 00:21:03;;;;;;;18.52;10.07;;;;;;;24.19;44.33;101296.91;20960949;28;20094;-74
2023/04/22 00:31:05;;;;;;;14.40;10.20;;;;;;;23.96;44.46;101253.78;20976486;28;20048;-72
2023/04/22 00:41:07;;;;;;;17.92;10.57;;;;;;;24.02;44.25;101266.56;20975460;28;20118;-74
2023/04/22 00:51:08;;;;;;;22.55;11.07;;;;;;;23.70;43.91;101225.22;20972495;28;20041;-73
2023/04/22 01:01:11;;;;;;;15.55;9.13;;;;;;;24.27;43.84;101346.56;20954684;28;20037;-73
2023/04/22 01:11:13;;;;;;;15.13;9.18;;;;;;;24.16;43.66;101319.84;20973342;28;20142;-73
2023/04/22 01:21:23;;;;;;;13.38;8.77;;;;;;;24.24;43.27;101347.19;20959342;28;20448;-73
2023/04/22 01:31:30;;;;;;;14.75;8.85;;;;;;;24.32;43.45;101371.69;20971244;28;20075;-74
2023/04/22 01:41:32;;;;;;;11.52;8.02;;;;;;;24.35;43.15;101365.53;20976226;28;20118;-72
2023/04/22 01:51:33;;;;;;;13.15;7.85;;;;;;;24.35;43.41;101359.09;20976654;28;20048;-73
2023/04/22 02:01:35;;;;;;;10.55;7.75;;;;;;;24.26;43.08;101361.69;20984588;28;20437;-76
2023/04/22 02:11:36;;;;;;;14.68;7.55;;;;;;;24.36;43.22;101366.34;20981100;28;20094;-79
2023/04/22 02:21:37;;;;;;;9.88;7.57;;;;;;;24.09;42.55;101302.56;20987483;28;20041;-73
2023/04/22 02:31:39;;;;;;;12.82;8.02;;;;;;;24.31;42.82;101330.03;20969499;28;20044;-72
2023/04/22 02:41:40;;;;;;;10.85;7.90;;;;;;;24.38;42.63;101321.34;20990240;28;20037;-72
2023/04/22 02:51:41;;;;;;;8.45;6.85;;;;;;;24.27;42.21;101295.41;20985684;28;20451;-73
2023/04/22 03:01:49;;;;;;;12.50;7.22;;;;;;;24.34;42.62;101302.31;20989313;28;20533;-73
2023/04/22 03:11:50;;;;;;;10.37;6.97;;;;;;;24.18;42.38;101275.63;20959226;28;20081;-73
2023/04/22 03:21:52;;;;;;;8.27;5.72;;;;;;;24.34;42.40;101295.91;21003010;28;20040;-72
2023/04/22 03:31:55;;;;;;;8.38;5.75;;;;;;;24.36;42.20;101276.84;21000692;28;20110;-73
2023/04/22 03:41:57;;;;;;;9.93;6.25;;;;;;;24.35;42.04;101276.00;20998501;28;20036;-73
2023/04/22 03:51:58;;;;;;;9.52;6.45;;;;;;;24.35;41.02;101276.00;20975788;28;20061;-73
2023/04/22 04:02:00;;;;;;;9.38;6.10;;;;;;;24.20;41.54;101248.22;20965815;28;20040;-76
2023/04/22 04:12:02;;;;;;;12.63;6.47;;;;;;;24.32;41.87;101265.41;20983512;28;20041;-70
2023/04/22 04:22:03;;;;;;;8.02;6.47;;;;;;;24.07;41.65;101207.81;20951716;28;20028;-71
2023/04/22 04:32:04;;;;;;;9.52;6.55;;;;;;;24.35;41.61;101256.44;20969768;28;20450;-71
2023/04/22 04:42:06;;;;;;;7.10;5.82;;;;;;;24.34;41.81;101237.16;20945544;28;20044;-70
2023/04/22 04:52:10;;;;;;;6.82;5.47;;;;;;;24.33;41.81;101227.94;20942200;28;20044;-71
2023/04/22 05:02:14;;;;;;;8.15;5.60;;;;;;;24.32;41.84;101220.66;20966697;28;20067;-71
2023/04/22 05:12:16;;;;;;;7.05;5.45;;;;;;;24.32;41.89;101214.25;20977716;28;20044;-72
2023/04/22 05:22:17;;;;;;;9.30;5.60;;;;;;;24.45;41.87;101193.16;20978826;28;20486;-72
2023/04/22 05:32:18;;;;;;;9.73;5.63;;;;;;;24.57;41.83;101204.75;20978090;28;20500;-72
2023/04/22 05:42:20;;;;;;;8.57;5.50;;;;;;;24.52;41.64;101174.03;20993627;28;20037;-73
2023/04/22 05:52:21;;;;;;;9.18;5.30;;;;;;;24.17;41.65;101122.97;20957093;28;20044;-72
2023/04/22 06:02:23;;;;;;;14.00;5.90;;;;;;;24.59;41.61;101168.91;21006578;28;20070;-72
2023/04/22 06:12:24;;;;;;;8.60;5.28;;;;;;;24.57;41.40;101171.19;21002699;28;20033;-72
2023/04/22 06:22:25;;;;;;;7.05;5.18;;;;;;;24.49;41.60;101152.25;21004233;28;20516;-73
2023/04/22 06:32:27;;;;;;;6.55;5.00;;;;;;;24.56;41.30;101163.91;21002852;28;20126;-72
2023/04/22 06:42:28;;;;;;;6.35;5.47;;;;;;;24.52;41.23;101162.84;21003010;28;20074;-73
2023/04/22 06:52:32;;;;;;;8.68;5.20;;;;;;;24.50;41.14;101165.09;21000969;28;20437;-72
2023/04/22 07:02:33;;;;;;;5.60;4.57;;;;;;;24.42;41.18;101154.56;20989997;28;20040;-73
2023/04/22 07:12:35;;;;;;;5.93;5.32;;;;;;;24.40;41.21;101173.63;20998170;28;20074;-72
2023/04/22 07:22:36;;;;;;;7.10;4.97;;;;;;;24.46;41.12;101175.22;20998367;28;20045;-73
2023/04/22 07:32:38;;;;;;;6.97;4.90;;;;;;;24.49;41.44;101180.22;20997493;28;20109;-73
2023/04/22 07:42:39;;;;;;;5.38;4.88;;;;;;;24.40;41.27;101170.84;20998886;28;20037;-73
2023/04/22 07:52:40;;;;;;;6.72;4.82;;;;;;;24.22;41.20;101150.88;20996961;28;20086;-72
2023/04/22 08:02:42;;;;;;;7.70;5.15;;;;;;;24.46;41.10;101217.19;20960551;28;20044;-71
2023/04/22 08:12:44;;;;;;;5.22;4.72;;;;;;;24.37;41.21;101199.41;20994655;28;20058;-73
2023/04/22 08:22:46;;;;;;;6.65;5.03;;;;;;;24.42;41.31;101199.31;20995375;28;20033;-73
2023/04/22 08:32:47;;;;;;;7.93;4.03;;;;;;;24.42;41.26;101202.13;20974775;28;20102;-72
2023/04/22 08:42:50;;;;;;;6.22;4.45;;;;;;;24.41;41.25;101203.25;20954654;28;20454;-73
2023/04/22 08:52:52;;;;;;;5.47;4.20;;;;;;;24.42;41.14;101204.91;20990199;28;20041;-72
2023/04/22 09:02:54;;;;;;;6.88;5.10;;;;;;;24.40;41.07;101205.22;20968059;28;20423;-73
2023/04/22 09:12:57;;;;;;;6.40;4.60;;;;;;;24.38;41.09;101206.69;20987992;28;20040;-72
2023/04/22 09:23:03;;;;;;;5.68;4.82;;;;;;;24.32;41.18;101194.66;20991644;28;20041;-73
2023/04/22 09:33:06;;;;;;;5.18;4.68;;;;;;;24.37;40.93;101205.81;20989916;28;20380;-72
2023/04/22 09:43:08;;;;;;;5.07;4.35;;;;;;;24.35;41.06;101194.06;20991210;28;20545;-73
2023/04/22 09:53:15;;;;;;;5.65;4.38;;;;;;;24.09;40.94;101143.19;20990092;28;20487;-73
2023/04/22 10:03:17;;;;;;;4.57;4.18;;;;;;;24.33;40.75;101186.00;20990402;28;20059;-73
2023/04/22 10:13:20;;;;;;;4.88;4.32;;;;;;;24.24;40.92;101182.19;20990123;28;20033;-72
2023/04/22 10:23:26;;;;;;;5.28;4.75;;;;;;;24.17;40.88;101176.09;20978948;28;20450;-72
2023/04/22 10:33:30;;;;;;;6.00;4.80;;;;;;;24.31;40.82;101202.22;21002721;28;20492;-73
2023/04/22 10:43:48;;;;;;;4.72;4.15;;;;;;;24.06;40.84;101177.38;21003011;28;20036;-72
2023/04/22 10:53:49;;;;;;;5.10;4.40;;;;;;;24.19;40.92;101199.03;21002053;28;20105;-72
2023/04/22 11:03:51;;;;;;;5.90;4.25;;;;;;;24.20;40.75;101203.47;21001486;28;20033;-72
2023/04/22 11:13:53;;;;;;;5.30;4.53;;;;;;;24.31;41.09;101235.78;21000111;28;20045;-72
2023/04/22 11:23:56;;;;;;;7.28;4.85;;;;;;;24.31;40.75;101230.19;20982435;28;20090;-72
2023/04/22 11:34:00;;;;;;;4.80;4.32;;;;;;;24.31;40.94;101210.63;20998018;28;20040;-72
2023/04/22 11:44:02;;;;;;;4.93;4.43;;;;;;;24.19;40.78;101193.44;20984925;28;20442;-73
2023/04/22 11:54:03;;;;;;;7.75;5.18;;;;;;;24.27;41.07;101205.91;20997088;28;20036;-72
2023/04/22 12:04:04;;;;;;;6.45;5.32;;;;;;;24.20;40.87;101216.63;20978335;28;20488;-72
2023/04/22 12:14:06;;;;;;;5.53;4.97;;;;;;;24.01;41.06;101163.44;20995735;28;20040;-73
2023/04/22 12:24:10;;;;;;;4.70;4.28;;;;;;;24.20;40.93;101211.88;20993727;28;20041;-72
2023/04/22 12:34:12;;;;;;;7.07;4.80;;;;;;;24.21;40.72;101195.94;20993619;28;20106;-72
2023/04/22 12:44:16;;;;;;;5.72;5.07;;;;;;;24.08;40.96;101155.53;20974078;28;20029;-73
2023/04/22 12:54:18;;;;;;;5.88;5.00;;;;;;;24.22;41.05;101170.44;20957255;28;20053;-73
2023/04/22 13:04:20;;;;;;;5.38;4.45;;;;;;;24.06;41.21;101149.41;20951986;28;20041;-73
2023/04/22 13:14:24;;;;;;;13.57;5.10;;;;;;;24.20;41.40;101169.94;20959079;28;20101;-69
2023/04/22 13:24:29;;;;;;;16.63;4.70;;;;;;;24.15;41.44;101152.38;20997589;28;20044;-71
2023/04/22 13:34:33;;;;;;;10.07;4.78;;;;;;;24.22;41.61;101164.03;20996421;28;21479;-70
2023/04/22 13:44:34;;;;;;;5.47;4.47;;;;;;;24.23;41.65;101149.75;20999341;28;20072;-71
2023/04/22 13:54:36;;;;;;;8.90;4.55;;;;;;;24.25;41.52;101147.50;20980306;28;22457;-71
2023/04/22 14:04:40;;;;;;;5.38;4.20;;;;;;;24.28;41.43;101152.50;21019537;28;20380;-73
2023/04/22 14:14:41;;;;;;;6.90;4.30;;;;;;;24.04;41.49;101109.72;21015719;28;20429;-72
2023/04/22 14:24:42;;;;;;;5.05;4.00;;;;;;;24.29;41.35;101137.38;20993797;28;20085;-72
2023/04/22 14:34:47;;;;;;;4.80;4.13;;;;;;;24.28;41.51;101118.94;21007265;28;20487;-72
2023/04/22 14:44:48;;;;;;;6.68;3.58;;;;;;;24.32;41.60;101125.56;20974005;28;20040;-72
2023/04/22 14:54:50;;;;;;;8.13;4.28;;;;;;;24.25;41.60;101105.53;20998316;28;20399;-78
2023/04/22 15:04:53;;;;;;;8.85;4.10;;;;;;;24.33;41.53;101093.69;21004526;28;20461;-79
2023/04/22 15:14:58;;;;;;;6.20;3.80;;;;;;;24.16;41.45;101048.63;21003051;28;20449;-78
2023/04/22 15:24:59;;;;;;;6.75;4.30;;;;;;;24.21;41.11;101040.16;21003359;28;20028;-78
2023/04/22 15:35:00;;;;;;;5.15;3.75;;;;;;;23.91;41.14;100979.06;21001611;28;20056;-78
2023/04/22 15:45:02;;;;;;;6.07;3.63;;;;;;;24.33;40.94;101045.31;20966533;28;20032;-78
2023/04/22 15:55:05;;;;;;;5.07;3.78;;;;;;;24.42;41.01;101063.13;20985951;28;20094;-78
2023/04/22 16:05:07;;;;;;;7.43;3.88;;;;;;;24.35;40.93;101049.47;20999545;28;20020;-78
2023/04/22 16:15:09;;;;;;;7.78;3.53;;;;;;;24.18;40.84;101009.16;20998720;28;20548;-77
2023/04/22 16:25:10;;;;;;;4.50;3.70;;;;;;;24.47;40.76;101037.03;20997104;28;20418;-81
2023/04/22 16:35:12;;;;;;;5.13;3.42;;;;;;;24.37;40.76;100992.41;20987420;28;20041;-77
2023/04/22 16:45:13;;;;;;;8.05;3.55;;;;;;;24.37;40.75;100970.88;20918099;28;20090;-74
2023/04/22 16:55:15;;;;;;;10.75;3.55;;;;;;;24.50;40.75;100967.31;20990691;28;20538;-72
2023/04/22 17:05:16;;;;;;;9.93;3.80;;;;;;;24.51;40.72;100948.56;20988435;28;20036;-75
2023/04/22 17:15:18;;;;;;;5.03;3.50;;;;;;;24.51;40.79;100926.19;21001878;28;20034;-75
2023/04/22 17:25:19;;;;;;;8.23;3.65;;;;;;;24.32;40.79;100896.25;20995901;28;20039;-74
2023/04/22 17:35:20;;;;;;;6.53;3.65;;;;;;;23.81;40.86;100802.03;20992105;28;20052;-73
2023/04/22 17:45:22;;;;;;;10.68;4.05;;;;;;;24.38;40.94;100882.25;20988925;28;20032;-74
2023/04/22 17:55:23;;;;;;;6.40;3.78;;;;;;;24.58;41.24;100888.28;20983934;28;20059;-73
2023/04/22 18:05:26;;;;;;;4.30;3.70;;;;;;;24.53;40.92;100870.78;21038130;28;20102;-73
2023/04/22 18:15:27;;;;;;;5.97;3.75;;;;;;;24.44;41.15;100830.66;20990410;28;20037;-73
2023/04/22 18:25:28;;;;;;;8.27;4.05;;;;;;;24.49;41.48;100800.63;20984613;28;20044;-73
2023/04/22 18:35:30;;;;;;;7.85;3.40;;;;;;;24.80;41.64;100794.44;20985868;28;20585;-73
2023/04/22 18:45:34;;;;;;;10.63;3.75;;;;;;;24.84;42.16;100790.69;20996691;28;20021;-73
2023/04/22 18:55:36;;;;;;;4.30;3.40;;;;;;;24.82;41.91;100762.19;21003322;28;20118;-74
2023/04/22 19:05:39;;;;;;;6.43;3.50;;;;;;;24.94;42.49;100755.25;21002674;28;20072;-73
2023/04/22 19:15:44;;;;;;;5.03;3.80;;;;;;;24.99;42.81;100755.94;21001904;28;20032;-74
2023/04/22 19:25:48;;;;;;;6.00;3.65;;;;;;;24.95;42.70;100712.94;20996332;28;20055;-76
2023/04/22 19:35:49;;;;;;;6.20;3.58;;;;;;;24.74;42.53;100678.97;20963308;28;20547;-75
2023/04/22 19:45:52;;;;;;;6.90;3.30;;;;;;;24.84;43.04;100675.94;20979454;28;20052;-74
2023/04/22 19:55:53;;;;;;;8.38;4.10;;;;;;;24.88;43.70;100673.34;20963985;28;20437;-74
2023/04/22 20:05:56;;;;;;;6.30;3.80;;;;;;;25.10;43.52;100712.59;20985926;28;20086;-74
2023/04/22 20:15:59;;;;;;;9.27;3.80;;;;;;;24.71;43.56;100645.19;20995197;28;20479;-74
2023/04/22 20:26:01;;;;;;;14.50;3.88;;;;;;;25.05;43.45;100704.28;20987622;28;20025;-74
2023/04/22 20:36:05;;;;;;;11.57;4.28;;;;;;;25.21;43.78;100727.22;20963548;28;20044;-75
2023/04/22 20:46:07;;;;;;;5.28;3.67;;;;;;;25.22;43.02;100717.66;20990719;28;20459;-73
2023/04/22 20:56:08;;;;;;;9.77;3.63;;;;;;;25.17;43.56;100709.38;20989545;28;20044;-72
2023/04/22 21:06:13;;;;;;;7.93;3.50;;;;;;;25.18;43.23;100679.41;20985731;28;20033;-74
2023/04/22 21:16:17;;;;;;;9.50;4.00;;;;;;;25.28;43.17;100671.59;20981564;28;20059;-75
2023/04/22 21:26:19;;;;;;;17.65;4.65;;;;;;;25.34;43.02;100689.94;20970478;28;20449;-74
2023/04/22 21:36:21;;;;;;;17.05;4.65;;;;;;;25.13;43.30;100674.75;20996815;28;20075;-74
2023/04/22 21:46:23;;;;;;;16.20;4.00;;;;;;;25.40;43.08;100740.22;20981383;28;20029;-73
2023/04/22 21:56:25;;;;;;;15.88;3.80;;;;;;;25.38;44.11;100771.34;20989497;28;20044;-73
2023/04/22 22:06:27;;;;;;;9.70;2.97;;;;;;;25.33;42.93;100850.72;20970761;28;20025;-73
2023/04/22 22:16:29;;;;;;;10.50;2.35;;;;;;;25.32;42.26;100907.88;20971590;28;20045;-74
2023/04/22 22:26:31;;;;;;;5.55;1.45;;;;;;;25.24;43.04;100889.00;20996579;28;20040;-73
2023/04/22 22:36:35;;;;;;;10.75;2.22;;;;;;;24.41;43.29;100789.31;21004680;28;20090;-75
2023/04/22 22:46:36;;;;;;;14.98;3.15;;;;;;;25.14;42.90;100854.78;21006949;28;20036;-71
2023/04/22 22:56:37;;;;;;;8.15;2.50;;;;;;;25.31;43.08;100881.03;20998569;28;20357;-75
2023/04/22 23:06:39;;;;;;;9.57;2.67;;;;;;;25.35;43.20;100943.69;20998466;28;20040;-75
2023/04/22 23:16:40;;;;;;;8.77;2.40;;;;;;;25.36;43.39;100930.50;20998780;28;20483;-75
2023/04/22 23:26:42;;;;;;;8.07;2.50;;;;;;;25.19;43.27;100919.91;20995257;28;20074;-72
2023/04/22 23:36:44;;;;;;;9.55;2.45;;;;;;;25.39;42.82;100917.84;20996611;28;20056;-73
2023/04/22 23:46:47;;;;;;;5.93;1.88;;;;;;;25.34;43.35;100921.59;20985090;28;20076;-74
2023/04/22 23:56:49;;;;;;;8.52;2.50;;;;;;;25.32;43.19;100933.09;20983210;28;20491;-74
